Aberdeen, Idaho
Current Conditions -  °F | °C
As of 4:53 AM on Wednesday 28 Jan 2015 (Local Time) from KPIH Reporting Station
Haze Haze  
Wind Chill: 30°   Ceiling: 400
Heat Index: 38°   Visibility: 5mi
Dew Point: 38°   Wind: 13mph
Humidity: 100%   Direction: 230°SW
Pressure: 30.2"   Gusts: NA
Location:  42.94°N, 112.84°W
Report Text: KPIH 281153Z AUTO 23011KT 5SM BR OVC004 03/03 A3020 RMK AO2 RAE07 SLP228 P0001 60003 70004 T00330033 10050 20033 53010
Loading
Personal Weather Stations






























Interactive Weather Map New forecast layout! Learn more

10-Day Weather Forecast

Advertisements
Track Severe Weather on mobile